Time;durP1;ratioP1;P1;durP2;ratioP2;P2;SDS_P1;SDS_P2;PMS_P1;PMS_P2;Temp;Humidity;BMP_temperature;BMP_pressure;BME280_temperature;BME280_humidity;BME280_pressure;Samples;Min_cycle;Max_cycle;Signal;HPM_P1;HPM_P2
2021/10/10 00:00:25;;;;;;;8.95;8.05;;;18.70;71.20;;;;;;10502188;28;20028;-59
2021/10/10 00:05:26;;;;;;;10.75;8.48;;;18.60;71.30;;;;;;10520009;28;20032;-59
2021/10/10 00:10:27;;;;;;;8.93;8.02;;;18.70;71.40;;;;;;10504365;28;20033;-58
2021/10/10 00:15:28;;;;;;;8.90;7.82;;;18.70;71.30;;;;;;10504177;28;20063;-58
2021/10/10 00:20:28;;;;;;;8.60;7.72;;;18.70;71.10;;;;;;10502985;28;20030;-59
2021/10/10 00:25:29;;;;;;;9.10;7.53;;;18.70;71.00;;;;;;10503612;28;20143;-59
2021/10/10 00:30:30;;;;;;;8.27;7.47;;;18.70;71.10;;;;;;10503428;28;20032;-59
2021/10/10 00:35:31;;;;;;;10.05;8.25;;;18.60;71.10;;;;;;10501878;28;20131;-59
2021/10/10 00:40:31;;;;;;;9.68;8.27;;;18.60;71.00;;;;;;10503439;28;20056;-59
2021/10/10 00:45:33;;;;;;;8.82;7.82;;;18.70;70.90;;;;;;10501433;28;20028;-59
2021/10/10 00:50:34;;;;;;;9.35;7.82;;;18.70;70.90;;;;;;10501697;28;20029;-59
2021/10/10 00:55:36;;;;;;;8.88;7.97;;;18.60;71.00;;;;;;10502433;28;20040;-59
2021/10/10 01:00:38;;;;;;;12.57;9.32;;;18.60;71.00;;;;;;10502722;28;20021;-59
2021/10/10 01:05:39;;;;;;;8.77;7.63;;;18.60;70.70;;;;;;10471156;28;20040;-59
2021/10/10 01:10:43;;;;;;;8.48;7.47;;;18.60;70.70;;;;;;10501539;28;20434;-58
2021/10/10 01:15:46;;;;;;;8.15;7.20;;;18.60;70.80;;;;;;10500565;28;20126;-59
2021/10/10 01:20:47;;;;;;;9.65;6.88;;;18.60;70.80;;;;;;10501884;28;20035;-59
2021/10/10 01:25:48;;;;;;;8.02;7.20;;;18.70;70.60;;;;;;10500547;28;20118;-59
2021/10/10 01:30:49;;;;;;;8.98;7.40;;;18.70;70.50;;;;;;10477078;28;20041;-59
2021/10/10 01:35:50;;;;;;;8.38;7.35;;;18.60;70.50;;;;;;10495290;28;20487;-59
2021/10/10 01:40:51;;;;;;;9.55;7.90;;;18.60;70.50;;;;;;10499810;28;20392;-58
2021/10/10 01:45:52;;;;;;;8.38;7.28;;;18.70;70.40;;;;;;10482620;28;20124;-59
2021/10/10 01:50:52;;;;;;;8.60;7.70;;;18.70;73.00;;;;;;10499011;28;20521;-59
2021/10/10 01:55:53;;;;;;;10.07;8.70;;;18.80;73.10;;;;;;10500271;28;20066;-59
2021/10/10 02:00:54;;;;;;;9.43;8.52;;;18.80;73.90;;;;;;10499083;28;20574;-59
2021/10/10 02:05:54;;;;;;;8.77;7.82;;;18.80;72.20;;;;;;10498174;28;20111;-59
2021/10/10 02:10:55;;;;;;;10.00;7.85;;;18.80;72.30;;;;;;10499883;28;20119;-59
2021/10/10 02:15:57;;;;;;;9.32;8.10;;;18.80;72.30;;;;;;10498152;28;20028;-59
2021/10/10 02:20:57;;;;;;;8.30;7.50;;;18.80;72.20;;;;;;10497379;28;20024;-58
2021/10/10 02:25:58;;;;;;;8.25;7.38;;;18.70;72.20;;;;;;10498629;28;20112;-58
2021/10/10 02:30:59;;;;;;;7.72;6.90;;;18.70;72.20;;;;;;10480877;28;20074;-59
2021/10/10 02:35:59;;;;;;;7.80;6.95;;;18.80;72.10;;;;;;10497148;28;20040;-59
2021/10/10 02:41:00;;;;;;;8.02;7.22;;;18.70;71.90;;;;;;10498275;28;20532;-58
2021/10/10 02:46:00;;;;;;;6.80;6.10;;;18.70;71.80;;;;;;10497065;28;20063;-59
2021/10/10 02:51:01;;;;;;;7.72;6.93;;;18.70;71.70;;;;;;10493450;28;20067;-59
2021/10/10 02:56:02;;;;;;;8.25;7.40;;;18.70;71.70;;;;;;10497835;28;20036;-59
2021/10/10 03:01:03;;;;;;;7.68;6.78;;;18.70;71.80;;;;;;10479985;28;20029;-58
2021/10/10 03:06:04;;;;;;;7.55;6.75;;;18.60;71.90;;;;;;10497289;28;20036;-59
2021/10/10 03:11:05;;;;;;;9.18;6.80;;;18.60;71.80;;;;;;10496339;28;20392;-59
2021/10/10 03:16:05;;;;;;;7.32;6.63;;;18.60;71.70;;;;;;10495876;28;20028;-59
2021/10/10 03:21:06;;;;;;;7.57;6.88;;;18.70;71.40;;;;;;10496022;28;20052;-59
2021/10/10 03:26:07;;;;;;;7.10;6.40;;;18.70;71.10;;;;;;10496138;28;20107;-59
2021/10/10 03:31:07;;;;;;;7.22;6.53;;;18.70;71.00;;;;;;10495703;28;20034;-59
2021/10/10 03:36:09;;;;;;;6.97;6.28;;;18.70;70.90;;;;;;10495324;28;20143;-59
2021/10/10 03:41:12;;;;;;;7.50;6.65;;;18.70;70.80;;;;;;10496745;28;20029;-59
2021/10/10 03:46:13;;;;;;;7.25;5.97;;;18.70;70.70;;;;;;10495447;28;20462;-58
2021/10/10 03:51:13;;;;;;;6.68;6.07;;;18.70;70.70;;;;;;10498743;28;20054;-59
2021/10/10 03:56:14;;;;;;;6.70;6.00;;;18.70;70.80;;;;;;10493972;28;20033;-59
2021/10/10 04:01:18;;;;;;;6.78;5.68;;;18.70;70.60;;;;;;10487509;28;20083;-58
2021/10/10 04:06:18;;;;;;;8.02;6.20;;;18.70;70.60;;;;;;10496336;28;20085;-59
2021/10/10 04:11:19;;;;;;;6.88;6.18;;;18.70;70.60;;;;;;10493293;28;20108;-59
2021/10/10 04:16:20;;;;;;;6.32;5.72;;;18.60;70.40;;;;;;10494041;28;20029;-59
2021/10/10 04:21:21;;;;;;;6.78;5.72;;;18.70;70.40;;;;;;10493859;28;20495;-59
2021/10/10 04:26:21;;;;;;;6.70;5.97;;;18.80;69.90;;;;;;10477187;28;20551;-59
2021/10/10 04:31:22;;;;;;;6.25;5.63;;;18.80;69.80;;;;;;10493855;28;20052;-59
2021/10/10 04:36:22;;;;;;;7.82;7.03;;;18.70;69.90;;;;;;10494587;28;20036;-59
2021/10/10 04:41:23;;;;;;;6.20;5.47;;;18.70;70.10;;;;;;10493821;28;20048;-59
2021/10/10 04:46:24;;;;;;;6.55;5.57;;;18.70;70.00;;;;;;10499828;28;20093;-59
2021/10/10 04:51:24;;;;;;;6.57;5.53;;;18.70;69.80;;;;;;10502970;28;20111;-58
2021/10/10 04:56:25;;;;;;;6.60;5.75;;;18.70;70.10;;;;;;10501367;28;20066;-59
2021/10/10 05:01:26;;;;;;;7.38;6.10;;;18.80;70.30;;;;;;10502793;28;20111;-59
2021/10/10 05:06:26;;;;;;;6.63;5.78;;;19.00;70.90;;;;;;10502385;28;20048;-60
2021/10/10 05:11:27;;;;;;;8.45;6.57;;;19.00;70.50;;;;;;10501021;28;20064;-58
2021/10/10 05:16:28;;;;;;;8.32;6.97;;;19.10;70.80;;;;;;10500353;28;20029;-59
2021/10/10 05:21:28;;;;;;;8.70;6.18;;;19.10;71.00;;;;;;10500318;28;20479;-59
2021/10/10 05:26:29;;;;;;;8.02;5.88;;;19.00;71.10;;;;;;10501293;28;20376;-59
2021/10/10 05:31:30;;;;;;;8.55;6.20;;;18.90;71.30;;;;;;10488266;28;20110;-61
2021/10/10 05:36:31;;;;;;;13.73;7.05;;;18.90;71.40;;;;;;10492853;28;20048;-59
2021/10/10 05:41:31;;;;;;;13.52;6.97;;;18.80;71.40;;;;;;10499348;28;20048;-59
2021/10/10 05:46:32;;;;;;;11.15;6.22;;;18.80;71.40;;;;;;10497903;28;20033;-59
2021/10/10 05:51:34;;;;;;;11.27;6.70;;;18.80;72.10;;;;;;10496642;28;20492;-54
2021/10/10 05:56:34;;;;;;;11.90;6.18;;;18.80;72.30;;;;;;10498083;28;20102;-56
2021/10/10 06:01:35;;;;;;;11.60;6.03;;;18.70;72.30;;;;;;10500163;28;20097;-58
2021/10/10 06:06:36;;;;;;;16.30;6.68;;;18.70;72.60;;;;;;10499579;28;20032;-56
2021/10/10 06:11:37;;;;;;;19.60;8.00;;;18.60;72.40;;;;;;10498553;28;20082;-56
2021/10/10 06:16:38;;;;;;;25.42;8.40;;;18.60;72.50;;;;;;10497798;28;20037;-56
2021/10/10 06:21:38;;;;;;;28.50;8.48;;;18.50;72.30;;;;;;10498061;28;20146;-56
2021/10/10 06:26:39;;;;;;;38.88;10.10;;;18.60;72.50;;;;;;10498363;28;20032;-57
2021/10/10 06:31:41;;;;;;;23.42;8.57;;;18.60;72.60;;;;;;10496080;28;20112;-57
2021/10/10 06:36:41;;;;;;;30.38;8.68;;;18.60;72.00;;;;;;10497897;28;20037;-56
2021/10/10 06:41:44;;;;;;;19.83;7.47;;;18.60;72.10;;;;;;10496997;28;20112;-57
2021/10/10 06:46:45;;;;;;;32.40;8.20;;;18.60;72.60;;;;;;10497768;28;20468;-57
2021/10/10 06:51:46;;;;;;;25.42;8.30;;;18.60;72.50;;;;;;10505433;28;20032;-56
2021/10/10 06:56:46;;;;;;;31.90;8.05;;;18.60;72.90;;;;;;10496513;28;20081;-56
2021/10/10 07:01:48;;;;;;;27.95;7.90;;;18.60;72.50;;;;;;10495866;28;20029;-50
2021/10/10 07:06:49;;;;;;;22.33;7.47;;;18.50;72.40;;;;;;10496379;28;20035;-49
2021/10/10 07:11:49;;;;;;;14.07;7.13;;;18.40;72.40;;;;;;10496264;28;20044;-52
2021/10/10 07:16:50;;;;;;;16.40;6.15;;;18.30;72.70;;;;;;10493118;28;20056;-51
2021/10/10 07:21:59;;;;;;;18.40;6.60;;;18.30;72.70;;;;;;10494850;28;20076;-50
2021/10/10 07:27:00;;;;;;;16.05;6.55;;;18.20;72.80;;;;;;10495879;28;20028;-51
2021/10/10 07:32:00;;;;;;;15.57;6.35;;;18.20;72.80;;;;;;10496682;28;20041;-49
2021/10/10 07:37:01;;;;;;;16.52;7.10;;;18.10;72.60;;;;;;10496244;28;20045;-51
2021/10/10 07:42:02;;;;;;;14.02;6.32;;;18.10;72.80;;;;;;10505949;28;20033;-50
2021/10/10 07:52:24;;;;;;;15.48;5.63;;;18.10;72.90;;;;;;10498717;28;20119;-48
2021/10/10 07:57:25;;;;;;;10.77;6.20;;;18.10;73.00;;;;;;10496449;28;20159;-51
2021/10/10 08:02:30;;;;;;;14.52;6.10;;;18.10;73.00;;;;;;10496587;28;20158;-50
2021/10/10 08:07:30;;;;;;;10.18;5.32;;;18.00;73.00;;;;;;10495165;28;20043;-49
2021/10/10 08:12:31;;;;;;;13.93;5.68;;;18.00;73.10;;;;;;10494694;28;20445;-48
2021/10/10 08:17:32;;;;;;;11.02;5.38;;;18.00;73.20;;;;;;10496304;28;20111;-49
2021/10/10 08:22:35;;;;;;;15.98;6.20;;;18.00;73.30;;;;;;10504242;28;20033;-50
2021/10/10 08:27:36;;;;;;;10.32;5.55;;;18.00;73.20;;;;;;10502208;28;20055;-52
2021/10/10 08:32:38;;;;;;;13.38;5.50;;;18.00;73.00;;;;;;10502286;28;20039;-54
2021/10/10 08:37:38;;;;;;;16.73;5.10;;;18.00;73.20;;;;;;10500788;28;20488;-58
2021/10/10 08:42:46;;;;;;;16.40;5.50;;;18.20;72.90;;;;;;10501360;28;20028;-54
2021/10/10 08:47:50;;;;;;;22.73;6.55;;;18.50;72.10;;;;;;10502396;28;20025;-56
2021/10/10 08:52:58;;;;;;;13.48;5.72;;;18.50;73.20;;;;;;10503048;28;20607;-55
2021/10/10 08:58:00;;;;;;;12.57;6.30;;;18.60;73.30;;;;;;10502337;28;20492;-56
2021/10/10 09:03:11;;;;;;;18.40;6.25;;;18.70;73.60;;;;;;10501977;28;20032;-50
2021/10/10 09:08:12;;;;;;;16.48;6.32;;;18.80;75.10;;;;;;10501965;28;20532;-48
2021/10/10 09:13:15;;;;;;;23.13;8.23;;;18.90;75.40;;;;;;10495088;28;20078;-55
2021/10/10 09:18:17;;;;;;;25.40;10.60;;;19.00;76.60;;;;;;10500868;28;20108;-50
2021/10/10 09:23:20;;;;;;;35.00;11.07;;;19.00;77.20;;;;;;10501648;28;20031;-47
2021/10/10 09:28:25;;;;;;;40.70;14.25;;;19.10;77.20;;;;;;10500221;28;20032;-55
2021/10/10 09:33:46;;;;;;;41.90;14.90;;;19.00;77.30;;;;;;10483487;28;20047;-55
2021/10/10 09:44:08;;;;;;;34.38;20.90;;;18.90;78.80;;;;;;10495788;28;20468;-51
2021/10/10 09:49:30;;;;;;;26.45;15.85;;;18.90;78.30;;;;;;10503199;28;20032;-52
2021/10/10 09:54:58;;;;;;;28.38;15.15;;;18.90;78.20;;;;;;10494437;28;20032;-52
2021/10/10 09:59:59;;;;;;;26.13;16.08;;;18.90;77.50;;;;;;10497830;28;20481;-52
2021/10/10 10:05:00;;;;;;;23.45;15.18;;;18.80;75.90;;;;;;10499171;28;20037;-53
2021/10/10 10:10:01;;;;;;;18.83;13.45;;;18.80;75.70;;;;;;10499583;28;20507;-49
2021/10/10 10:15:02;;;;;;;22.80;14.23;;;18.80;75.30;;;;;;10499221;28;20028;-48
2021/10/10 10:20:05;;;;;;;20.52;12.93;;;19.00;75.00;;;;;;10498146;28;20024;-46
2021/10/10 10:25:07;;;;;;;23.08;12.55;;;19.00;74.50;;;;;;10498839;28;20032;-46
2021/10/10 10:30:08;;;;;;;19.27;11.38;;;19.10;74.40;;;;;;10498901;28;20024;-45
2021/10/10 10:35:13;;;;;;;18.02;12.07;;;19.20;74.30;;;;;;10498019;28;20037;-47
2021/10/10 10:40:16;;;;;;;24.42;11.93;;;19.30;74.50;;;;;;10498564;28;20020;-48
2021/10/10 10:45:25;;;;;;;20.58;10.35;;;19.30;74.80;;;;;;10497641;28;20028;-50
2021/10/10 10:50:28;;;;;;;;;;;19.30;75.00;;;;;;10512025;28;20449;-47
2021/10/10 10:55:35;;;;;;;32.78;12.38;;;19.30;74.60;;;;;;10497742;28;19916;-49
2021/10/10 11:00:50;;;;;;;35.10;12.20;;;19.30;74.50;;;;;;10496960;28;20089;-49
2021/10/10 11:06:06;;;;;;;24.52;11.35;;;19.40;74.70;;;;;;10497868;28;20358;-48
2021/10/10 11:11:15;;;;;;;23.58;11.27;;;19.40;74.20;;;;;;10497565;28;20029;-46
2021/10/10 11:16:21;;;;;;;24.95;10.50;;;19.50;74.20;;;;;;10496185;28;20028;-47
2021/10/10 11:21:30;;;;;;;31.85;11.55;;;19.50;74.30;;;;;;10495820;28;20103;-46
2021/10/10 11:26:36;;;;;;;26.10;10.85;;;19.60;74.60;;;;;;10496632;28;20400;-47
2021/10/10 11:31:40;;;;;;;24.15;10.05;;;19.60;74.50;;;;;;10479954;28;20139;-45
2021/10/10 11:36:50;;;;;;;24.52;10.05;;;19.50;74.30;;;;;;10495439;28;20094;-43
2021/10/10 11:41:56;;;;;;;20.52;10.23;;;19.60;74.30;;;;;;10496934;28;20369;-45
2021/10/10 11:47:00;;;;;;;22.80;10.15;;;19.60;73.90;;;;;;10497115;28;20167;-45
2021/10/10 11:52:30;;;;;;;28.75;9.60;;;19.60;74.00;;;;;;10497365;28;20036;-48
2021/10/10 11:57:31;;;;;;;17.35;9.60;;;19.50;73.50;;;;;;10504452;28;20041;-47
2021/10/10 12:02:40;;;;;;;16.48;8.68;;;19.50;73.50;;;;;;10503704;28;20107;-45
2021/10/10 12:07:42;;;;;;;14.18;8.75;;;19.50;73.60;;;;;;10503263;28;20659;-45
2021/10/10 12:12:42;;;;;;;20.95;8.65;;;19.50;73.70;;;;;;10500526;28;20024;-46
2021/10/10 12:17:49;;;;;;;12.90;8.10;;;19.50;73.80;;;;;;10501403;28;20056;-46
2021/10/10 12:23:09;;;;;;;15.40;8.45;;;19.40;73.80;;;;;;10499637;28;20575;-48
2021/10/10 12:28:16;;;;;;;13.57;8.55;;;19.40;73.90;;;;;;10503488;28;20037;-46
2021/10/10 12:33:34;;;;;;;14.20;9.05;;;19.30;74.10;;;;;;10488624;28;20029;-45
2021/10/10 12:38:40;;;;;;;17.00;8.02;;;19.20;74.30;;;;;;10503146;28;20111;-47
2021/10/10 12:43:43;;;;;;;13.15;7.85;;;19.10;74.50;;;;;;10503063;28;20040;-46
2021/10/10 12:48:56;;;;;;;13.95;8.07;;;19.10;74.70;;;;;;10503112;28;20060;-46
2021/10/10 12:54:16;;;;;;;11.25;7.80;;;19.10;74.50;;;;;;10502295;28;20033;-45
2021/10/10 12:59:22;;;;;;;13.85;7.53;;;19.10;74.30;;;;;;10502555;28;20025;-46
2021/10/10 13:04:23;;;;;;;12.35;7.28;;;19.20;74.30;;;;;;10501214;28;20056;-45
2021/10/10 13:09:24;;;;;;;14.32;7.93;;;19.20;74.20;;;;;;10502041;28;20448;-46
2021/10/10 13:14:26;;;;;;;13.32;8.07;;;19.20;74.10;;;;;;10502114;28;20154;-46
2021/10/10 13:19:27;;;;;;;14.02;7.22;;;19.20;74.10;;;;;;10501616;28;20036;-47
2021/10/10 13:24:28;;;;;;;11.98;7.50;;;19.20;74.10;;;;;;10501577;28;20477;-46
2021/10/10 13:29:29;;;;;;;11.80;6.93;;;19.10;74.50;;;;;;10500838;28;20052;-47
2021/10/10 13:34:29;;;;;;;11.30;7.43;;;19.10;74.20;;;;;;10500627;28;20132;-45
2021/10/10 13:39:30;;;;;;;9.02;6.95;;;19.10;74.20;;;;;;10500920;28;20028;-47
2021/10/10 13:44:31;;;;;;;8.82;6.95;;;19.10;74.30;;;;;;10499552;28;20029;-46
2021/10/10 13:49:31;;;;;;;9.13;7.18;;;19.00;74.50;;;;;;10503459;28;20108;-47
2021/10/10 13:54:32;;;;;;;12.13;7.72;;;18.90;74.70;;;;;;10500389;28;20110;-46
2021/10/10 13:59:33;;;;;;;24.23;8.25;;;18.90;74.70;;;;;;10499855;28;20044;-47
2021/10/10 14:04:33;;;;;;;29.80;9.35;;;19.10;74.70;;;;;;10499808;28;20425;-48
2021/10/10 14:09:34;;;;;;;18.55;8.73;;;19.10;74.40;;;;;;10499586;28;20056;-50
2021/10/10 14:14:35;;;;;;;18.17;8.20;;;19.20;74.30;;;;;;10499835;28;20515;-49
2021/10/10 14:19:35;;;;;;;25.40;8.35;;;19.10;74.50;;;;;;10498220;28;20059;-48
2021/10/10 14:24:36;;;;;;;28.15;8.75;;;19.10;74.60;;;;;;10509469;28;20112;-51
2021/10/10 14:29:37;;;;;;;21.13;8.85;;;19.00;75.00;;;;;;10499065;28;20090;-48
2021/10/10 14:34:37;;;;;;;18.33;8.27;;;19.10;75.10;;;;;;10498634;28;20051;-48
2021/10/10 14:39:38;;;;;;;19.52;9.52;;;19.10;74.90;;;;;;10498182;28;20071;-48
2021/10/10 14:44:50;;;;;;;24.90;8.98;;;19.00;75.10;;;;;;10498274;28;20473;-49
2021/10/10 14:49:51;;;;;;;20.15;8.75;;;19.00;75.30;;;;;;10498445;28;20060;-53
2021/10/10 14:54:51;;;;;;;37.67;10.50;;;19.00;75.30;;;;;;10497573;28;20056;-47
2021/10/10 14:59:52;;;;;;;37.08;11.05;;;19.00;75.40;;;;;;10497638;28;20028;-47
2021/10/10 15:04:53;;;;;;;30.77;10.40;;;19.00;75.40;;;;;;10496360;28;20033;-51
2021/10/10 15:09:54;;;;;;;30.73;10.50;;;19.00;75.30;;;;;;10494407;28;20024;-48
2021/10/10 15:14:55;;;;;;;28.63;10.32;;;19.00;75.60;;;;;;10495404;28;20127;-50
2021/10/10 15:19:55;;;;;;;29.77;9.88;;;19.00;75.50;;;;;;10478426;28;20028;-48
2021/10/10 15:24:57;;;;;;;22.02;10.57;;;18.80;75.50;;;;;;10490651;28;20499;-48
2021/10/10 15:29:57;;;;;;;17.95;10.07;;;18.90;74.80;;;;;;10492985;28;20469;-53
2021/10/10 15:34:58;;;;;;;21.05;10.68;;;18.80;74.70;;;;;;10481092;28;20120;-49
2021/10/10 15:39:59;;;;;;;22.48;11.48;;;18.80;74.10;;;;;;10493036;28;20029;-52
2021/10/10 15:45:00;;;;;;;30.50;12.93;;;18.90;73.70;;;;;;10496333;28;20229;-51
2021/10/10 15:50:02;;;;;;;21.00;10.90;;;18.80;73.80;;;;;;10495744;28;20158;-52
2021/10/10 15:55:03;;;;;;;19.02;11.98;;;18.80;74.70;;;;;;10495555;28;20503;-54
2021/10/10 16:00:05;;;;;;;21.02;12.95;;;18.80;74.80;;;;;;10495343;28;20530;-54
2021/10/10 16:05:08;;;;;;;26.52;12.95;;;18.80;74.60;;;;;;10496511;28;20032;-52
2021/10/10 16:10:09;;;;;;;13.50;11.30;;;18.70;72.50;;;;;;10496284;28;20060;-53
2021/10/10 16:15:10;;;;;;;20.48;11.98;;;18.70;72.40;;;;;;10495938;28;20036;-47
2021/10/10 16:20:12;;;;;;;63.80;17.08;;;18.80;73.10;;;;;;10496366;28;20020;-50
2021/10/10 16:25:13;;;;;;;64.47;16.88;;;18.70;73.40;;;;;;10496089;28;20123;-49
2021/10/10 16:30:15;;;;;;;64.25;17.50;;;18.70;73.70;;;;;;10495887;28;20099;-54
2021/10/10 16:35:29;;;;;;;45.22;15.98;;;18.70;73.70;;;;;;10495756;28;20133;-50
2021/10/10 16:40:40;;;;;;;55.55;18.13;;;18.70;74.10;;;;;;10496741;28;20082;-52
2021/10/10 16:45:42;;;;;;;42.03;15.45;;;18.70;74.40;;;;;;10503001;28;20033;-52
2021/10/10 16:50:42;;;;;;;40.08;15.15;;;18.60;74.80;;;;;;10504234;28;20021;-51
2021/10/10 16:55:43;;;;;;;59.78;17.30;;;18.60;75.00;;;;;;10502628;28;20112;-49
2021/10/10 17:00:44;;;;;;;50.33;17.42;;;18.70;74.80;;;;;;10502953;28;20060;-52
2021/10/10 17:05:44;;;;;;;49.13;16.45;;;18.60;74.80;;;;;;10502527;28;20047;-50
2021/10/10 17:10:47;;;;;;;37.47;15.00;;;18.60;75.00;;;;;;10501264;28;20056;-50
2021/10/10 17:15:48;;;;;;;44.00;15.10;;;18.50;74.70;;;;;;10502244;28;20037;-48
2021/10/10 17:20:49;;;;;;;39.58;15.80;;;18.50;75.00;;;;;;10501659;28;20074;-51
2021/10/10 17:25:50;;;;;;;34.13;13.73;;;18.50;75.10;;;;;;10501930;28;20036;-53
2021/10/10 17:30:50;;;;;;;30.75;15.18;;;18.40;75.10;;;;;;10495326;28;20037;-49
2021/10/10 17:35:53;;;;;;;44.88;16.25;;;18.40;75.10;;;;;;10497350;28;20523;-49
2021/10/10 17:40:54;;;;;;;41.58;14.40;;;18.40;75.10;;;;;;10499887;28;20039;-49
2021/10/10 17:45:55;;;;;;;31.38;14.57;;;18.40;75.10;;;;;;10480338;28;20524;-52
2021/10/10 17:50:55;;;;;;;39.95;14.30;;;18.40;75.10;;;;;;10497787;28;20527;-50
2021/10/10 17:55:59;;;;;;;31.45;14.00;;;18.40;75.10;;;;;;10487035;28;20029;-50
2021/10/10 18:01:08;;;;;;;26.25;13.20;;;18.40;75.10;;;;;;10497229;28;20028;-52
2021/10/10 18:11:43;;;;;;;26.30;13.65;;;18.40;75.10;;;;;;10490932;28;20353;-53
2021/10/10 18:16:44;;;;;;;23.00;13.45;;;18.40;75.10;;;;;;10492595;28;20032;-53
2021/10/10 18:21:45;;;;;;;28.23;14.32;;;18.40;75.10;;;;;;10492393;28;20064;-49
2021/10/10 18:26:45;;;;;;;26.08;14.85;;;18.40;75.10;;;;;;10491669;28;20044;-48
2021/10/10 18:31:47;;;;;;;20.00;12.32;;;18.30;75.00;;;;;;10490172;28;20121;-49
2021/10/10 18:36:48;;;;;;;20.70;12.70;;;18.30;75.00;;;;;;10495031;28;20044;-48
2021/10/10 18:41:49;;;;;;;23.98;13.25;;;18.30;75.10;;;;;;10474615;28;20743;-50
2021/10/10 18:46:50;;;;;;;21.23;12.77;;;18.30;75.10;;;;;;10491437;28;20036;-47
2021/10/10 18:51:51;;;;;;;17.20;11.57;;;18.20;75.10;;;;;;10494910;28;20039;-49
2021/10/10 18:56:51;;;;;;;17.95;11.70;;;18.20;75.10;;;;;;10491318;28;20070;-47
2021/10/10 19:01:52;;;;;;;19.15;12.65;;;18.20;75.10;;;;;;10491050;28;20021;-48
2021/10/10 19:06:53;;;;;;;18.38;11.77;;;18.20;75.10;;;;;;10489533;28;20062;-48
2021/10/10 19:11:53;;;;;;;17.90;11.95;;;18.20;75.10;;;;;;10490039;28;20091;-47
2021/10/10 19:16:54;;;;;;;21.15;12.48;;;18.20;75.10;;;;;;10490825;28;20478;-49
2021/10/10 19:21:55;;;;;;;17.73;15.00;;;18.20;75.10;;;;;;10517439;28;20201;-50
2021/10/10 19:26:56;;;;;;;18.10;13.57;;;18.20;75.80;;;;;;10523786;28;20036;-50
2021/10/10 19:31:57;;;;;;;22.20;13.02;;;18.30;75.50;;;;;;10501934;28;20435;-51
2021/10/10 19:36:59;;;;;;;19.73;12.95;;;18.40;75.00;;;;;;10500424;28;20117;-48
2021/10/10 19:42:01;;;;;;;18.00;12.32;;;18.30;74.80;;;;;;10518320;28;20035;-49
2021/10/10 19:47:03;;;;;;;16.75;12.45;;;18.20;74.80;;;;;;10496249;28;20113;-49
2021/10/10 19:52:05;;;;;;;20.65;12.75;;;18.20;75.00;;;;;;10491953;28;20024;-48
2021/10/10 19:57:06;;;;;;;16.17;12.05;;;18.20;75.00;;;;;;10493621;28;20031;-51
2021/10/10 20:02:07;;;;;;;18.02;11.77;;;18.20;75.00;;;;;;10494312;28;20031;-47
2021/10/10 20:07:09;;;;;;;14.98;12.32;;;18.20;75.10;;;;;;10493701;28;20158;-48
2021/10/10 20:12:10;;;;;;;17.20;12.18;;;18.10;75.10;;;;;;10492774;28;20055;-47
2021/10/10 20:17:10;;;;;;;14.52;11.35;;;18.10;75.00;;;;;;10500981;28;20047;-49
2021/10/10 20:22:11;;;;;;;17.02;12.80;;;18.10;75.00;;;;;;10504317;28;20024;-47
2021/10/10 20:27:12;;;;;;;17.25;12.05;;;18.10;75.10;;;;;;10504200;28;20121;-47
2021/10/10 20:32:12;;;;;;;15.60;11.65;;;18.10;75.40;;;;;;10503884;28;20060;-50
2021/10/10 20:37:13;;;;;;;15.88;12.23;;;18.10;75.10;;;;;;10503473;28;20499;-48
2021/10/10 20:42:14;;;;;;;15.38;11.85;;;18.10;75.10;;;;;;10494576;28;20036;-48
2021/10/10 20:47:15;;;;;;;15.30;12.25;;;18.10;75.10;;;;;;10500585;28;20438;-49
2021/10/10 20:52:15;;;;;;;14.82;10.40;;;18.10;75.20;;;;;;10501526;28;20028;-48
2021/10/10 20:57:16;;;;;;;13.80;11.35;;;18.00;75.10;;;;;;10502751;28;20041;-47
2021/10/10 21:02:17;;;;;;;15.48;12.15;;;18.00;75.10;;;;;;10502640;28;20107;-46
2021/10/10 21:07:17;;;;;;;13.43;10.50;;;18.00;75.10;;;;;;10501698;28;20028;-49
2021/10/10 21:12:18;;;;;;;13.68;11.48;;;18.00;75.10;;;;;;10498663;28;20036;-48
2021/10/10 21:17:19;;;;;;;13.85;11.18;;;18.00;75.20;;;;;;10500922;28;20119;-47
2021/10/10 21:22:20;;;;;;;12.98;11.35;;;18.00;75.20;;;;;;10502063;28;20068;-47
2021/10/10 21:27:25;;;;;;;16.65;12.73;;;18.00;75.20;;;;;;10500934;28;20032;-50
2021/10/10 21:32:42;;;;;;;15.13;11.23;;;18.00;75.10;;;;;;10493413;28;20031;-47
2021/10/10 21:37:44;;;;;;;15.50;11.70;;;18.00;75.80;;;;;;10501516;28;20055;-54
2021/10/10 21:42:45;;;;;;;14.18;10.68;;;18.00;75.20;;;;;;10499669;28;20021;-54
2021/10/10 21:47:46;;;;;;;14.57;12.05;;;18.00;75.10;;;;;;10501120;28;20025;-55
2021/10/10 21:52:47;;;;;;;13.90;11.88;;;18.00;75.20;;;;;;10513533;28;20154;-54
2021/10/10 21:57:48;;;;;;;13.27;10.57;;;17.90;75.00;;;;;;10499013;28;20767;-55
2021/10/10 22:02:49;;;;;;;14.32;11.38;;;18.00;75.10;;;;;;10498890;28;20115;-54
2021/10/10 22:07:49;;;;;;;14.50;12.50;;;17.90;75.00;;;;;;10500095;28;20060;-55
2021/10/10 22:12:50;;;;;;;14.30;12.32;;;17.90;75.00;;;;;;10500096;28;20060;-54
2021/10/10 22:17:51;;;;;;;15.70;11.80;;;17.90;75.00;;;;;;10499883;28;20119;-55
2021/10/10 22:22:52;;;;;;;13.95;11.05;;;17.90;75.00;;;;;;10499482;28;20082;-55
2021/10/10 22:33:03;;;;;;;12.15;10.85;;;17.90;75.00;;;;;;10499580;28;20120;-54
2021/10/10 22:38:03;;;;;;;13.52;9.95;;;17.90;75.00;;;;;;10498398;28;20136;-55
2021/10/10 22:43:04;;;;;;;11.57;10.38;;;17.90;75.00;;;;;;10497463;28;20430;-55
2021/10/10 22:48:08;;;;;;;13.35;10.82;;;17.90;75.00;;;;;;10499729;28;20028;-55
2021/10/10 22:53:09;;;;;;;12.57;10.95;;;17.90;74.90;;;;;;10510395;28;20154;-55
2021/10/10 22:58:10;;;;;;;12.15;10.27;;;17.90;74.90;;;;;;10498439;28;20166;-55
2021/10/10 23:03:10;;;;;;;11.50;9.40;;;17.90;75.00;;;;;;10497886;28;20028;-54
2021/10/10 23:08:11;;;;;;;9.80;8.75;;;17.90;74.90;;;;;;10496607;28;20115;-55
2021/10/10 23:13:12;;;;;;;12.02;9.30;;;17.90;74.90;;;;;;10497624;28;20095;-55
2021/10/10 23:18:13;;;;;;;9.77;8.77;;;17.90;74.90;;;;;;10497680;28;20097;-55
2021/10/10 23:23:13;;;;;;;9.20;8.18;;;17.90;74.90;;;;;;10497077;28;20082;-55
2021/10/10 23:28:14;;;;;;;9.77;8.60;;;17.90;74.80;;;;;;10497216;28;20032;-55
2021/10/10 23:33:15;;;;;;;9.80;8.40;;;17.80;74.80;;;;;;10495923;28;20094;-55
2021/10/10 23:38:15;;;;;;;9.95;7.60;;;17.90;74.90;;;;;;10496429;28;20117;-54
2021/10/10 23:43:16;;;;;;;9.73;6.90;;;17.80;74.80;;;;;;10497224;28;20454;-53
2021/10/10 23:48:17;;;;;;;9.32;7.78;;;17.80;74.90;;;;;;10499556;28;20019;-55
2021/10/10 23:53:18;;;;;;;9.38;7.47;;;17.80;74.80;;;;;;10529741;28;20105;-55
2021/10/10 23:58:18;;;;;;;8.13;7.32;;;17.80;74.80;;;;;;10510470;28;20028;-54
